Time;durP1;ratioP1;P1;durP2;ratioP2;P2;SDS_P1;SDS_P2;PMS_P1;PMS_P2;Temp;Humidity;BMP_temperature;BMP_pressure;BME280_temperature;BME280_humidity;BME280_pressure;Samples;Min_cycle;Max_cycle;Signal;HPM_P1;HPM_P2
2024/04/16 00:00:34;;;;;;;;;0.00;0.00;;;;;11.63;61.78;100912.47;5403972;26;43945;-69
2024/04/16 00:03:00;;;;;;;;;0.00;0.00;;;;;11.64;61.31;100905.31;5415489;26;43932;-69
2024/04/16 00:05:25;;;;;;;;;6.25;1.00;;;;;11.76;62.04;100930.75;5415491;26;44144;-69
2024/04/16 00:07:51;;;;;;;;;1.00;0.00;;;;;11.69;61.58;100930.09;5402990;26;43998;-69
2024/04/16 00:10:16;;;;;;;;;1.25;1.00;;;;;11.78;61.34;100928.94;5420978;26;44020;-69
2024/04/16 00:12:42;;;;;;;;;0.75;0.75;;;;;11.82;60.65;100944.78;5391055;26;54642;-69
2024/04/16 00:15:08;;;;;;;;;0.00;0.00;;;;;11.75;62.17;100939.72;5415303;26;44256;-69
2024/04/16 00:17:34;;;;;;;;;1.50;1.00;;;;;11.79;61.13;100934.19;5406408;26;43964;-66
2024/04/16 00:19:59;;;;;;;;;1.75;0.75;;;;;11.51;61.53;100888.84;5415065;26;44049;-66
2024/04/16 00:22:24;;;;;;;;;1.00;1.00;;;;;11.75;61.98;100915.66;5409530;26;46011;-66
2024/04/16 00:24:50;;;;;;;;;3.00;1.25;;;;;11.67;61.68;100921.25;5424756;26;43840;-66
2024/04/16 00:27:15;;;;;;;;;0.00;0.00;;;;;11.69;61.54;100919.41;5411873;26;44349;-66
2024/04/16 00:29:43;;;;;;;;;1.00;0.25;;;;;11.66;61.61;100919.50;5414499;26;51431;-66
2024/04/16 00:32:08;;;;;;;;;1.00;0.00;;;;;11.42;61.15;100879.31;5404056;26;45088;-66
2024/04/16 00:34:34;;;;;;;;;1.75;1.00;;;;;11.76;61.31;100934.34;5402459;26;43983;-66
2024/04/16 00:36:59;;;;;;;;;3.75;0.00;;;;;11.61;61.49;100903.63;5425158;26;44711;-67
2024/04/16 00:39:24;;;;;;;;;0.25;0.25;;;;;11.55;61.66;100897.63;5427869;26;52593;-66
2024/04/16 00:41:50;;;;;;;;;0.25;0.25;;;;;11.76;61.41;100923.63;5428310;26;45516;-66
2024/04/16 00:44:15;;;;;;;;;0.75;0.75;;;;;11.72;61.10;100908.59;5403732;26;44200;-66
2024/04/16 00:46:40;;;;;;;;;1.00;1.00;;;;;11.75;61.55;100904.97;5397914;26;44001;-66
2024/04/16 00:49:08;;;;;;;;;1.50;0.50;;;;;11.60;61.56;100876.94;5417360;26;44037;-66
2024/04/16 00:51:34;;;;;;;;;0.00;0.00;;;;;11.66;61.21;100876.72;5405103;26;45750;-67
2024/04/16 00:53:59;;;;;;;;;0.00;0.00;;;;;11.71;60.95;100888.16;5428927;26;44026;-66
2024/04/16 00:56:26;;;;;;;;;0.25;0.25;;;;;11.64;60.63;100879.47;5404700;26;43876;-66
2024/04/16 00:58:51;;;;;;;;;1.75;0.25;;;;;11.50;60.80;100852.31;5415475;26;44100;-66
2024/04/16 01:01:17;;;;;;;;;1.00;1.00;;;;;11.47;61.78;100845.28;5405727;26;44475;-66
2024/04/16 01:03:43;;;;;;;;;1.00;1.00;;;;;11.72;60.90;100887.22;5399061;26;44330;-66
2024/04/16 01:06:09;;;;;;;;;0.25;0.00;;;;;11.48;61.13;100838.16;5427066;26;43943;-67
2024/04/16 01:08:34;;;;;;;;;2.00;1.00;;;;;11.38;60.75;100829.56;5405057;26;43960;-66
2024/04/16 01:11:00;;;;;;;;;1.25;1.00;;;;;11.66;61.85;100868.69;5418043;26;43906;-67
2024/04/16 01:13:25;;;;;;;;;1.25;1.00;;;;;11.36;61.20;100825.19;5413635;26;44245;-67
2024/04/16 01:15:50;;;;;;;;;1.00;1.00;;;;;11.55;60.96;100854.84;5405667;26;44048;-66
2024/04/16 01:18:16;;;;;;;;;1.50;1.00;;;;;11.48;61.30;100844.34;5426809;26;44029;-66
2024/04/16 01:20:41;;;;;;;;;3.00;1.00;;;;;11.39;61.96;100831.28;5427357;26;46017;-66
2024/04/16 01:23:07;;;;;;;;;0.50;0.25;;;;;11.42;61.23;100833.88;5423243;26;43916;-66
2024/04/16 01:25:34;;;;;;;;;0.00;0.00;;;;;11.50;61.32;100845.16;5417864;26;44234;-66
2024/04/16 01:27:59;;;;;;;;;1.75;1.00;;;;;11.58;61.86;100849.41;5417377;26;43930;-66
2024/04/16 01:30:25;;;;;;;;;0.25;0.25;;;;;11.55;61.57;100844.16;5405464;26;44944;-66
2024/04/16 01:32:50;;;;;;;;;5.50;0.75;;;;;11.43;61.67;100830.28;5403918;26;43868;-66
2024/04/16 01:35:15;;;;;;;;;1.00;1.00;;;;;11.52;61.04;100849.59;5425834;26;43977;-66
2024/04/16 01:37:41;;;;;;;;;6.00;1.00;;;;;11.60;61.22;100860.91;5426531;26;43991;-66
2024/04/16 01:40:07;;;;;;;;;1.00;1.00;;;;;11.47;61.01;100858.63;5391773;26;46009;-66
2024/04/16 01:42:32;;;;;;;;;2.00;1.00;;;;;11.45;61.98;100841.78;5410339;26;44500;-66
2024/04/16 01:44:59;;;;;;;;;1.75;0.50;;;;;11.54;62.09;100858.44;5410357;26;43941;-66
2024/04/16 01:47:24;;;;;;;;;1.00;1.00;;;;;11.48;61.57;100847.03;5427351;26;44006;-67
2024/04/16 01:49:50;;;;;;;;;4.00;2.00;;;;;11.49;62.20;100862.16;5426509;26;46142;-67
2024/04/16 01:52:15;;;;;;;;;1.50;0.00;;;;;11.43;62.20;100829.41;5428647;26;43885;-66
2024/04/16 01:54:41;;;;;;;;;1.00;1.00;;;;;11.48;61.90;100856.88;5417231;26;43875;-66
2024/04/16 01:57:06;;;;;;;;;1.00;1.00;;;;;11.38;61.97;100836.72;5421409;26;44479;-66
2024/04/16 01:59:31;;;;;;;;;1.00;0.00;;;;;11.43;62.64;100854.34;5401524;26;44064;-66
2024/04/16 02:01:57;;;;;;;;;3.50;1.00;;;;;11.44;61.94;100848.06;5409122;26;44559;-66
2024/04/16 02:04:22;;;;;;;;;3.50;2.00;;;;;11.37;61.95;100845.66;5405611;26;44095;-66
2024/04/16 02:06:47;;;;;;;;;0.75;0.00;;;;;11.23;61.89;100814.06;5416609;26;44277;-66
2024/04/16 02:09:13;;;;;;;;;1.50;1.50;;;;;11.34;61.68;100830.59;5427403;26;45022;-66
2024/04/16 02:11:39;;;;;;;;;2.25;0.50;;;;;11.13;62.68;100803.69;5429472;26;43848;-66
2024/04/16 02:14:04;;;;;;;;;5.00;3.00;;;;;11.31;62.35;100836.91;5404494;26;44130;-66
2024/04/16 02:16:30;;;;;;;;;4.50;1.00;;;;;11.06;61.86;100802.16;5396623;26;43969;-66
2024/04/16 02:18:55;;;;;;;;;1.00;1.00;;;;;11.25;62.33;100837.13;5416802;26;44807;-66
2024/04/16 02:21:20;;;;;;;;;1.75;1.00;;;;;11.28;62.76;100837.03;5411544;26;43828;-66
2024/04/16 02:23:47;;;;;;;;;2.00;1.00;;;;;11.37;61.87;100846.53;5425528;26;43954;-66
2024/04/16 02:26:12;;;;;;;;;3.50;1.00;;;;;11.29;62.12;100833.44;5409552;26;43873;-66
2024/04/16 02:28:38;;;;;;;;;1.75;1.75;;;;;11.30;62.09;100834.31;5416942;26;43916;-67
2024/04/16 02:31:03;;;;;;;;;1.50;0.25;;;;;11.29;62.45;100829.88;5412756;26;44212;-66
2024/04/16 02:33:28;;;;;;;;;2.00;1.00;;;;;11.29;62.17;100835.22;5425884;26;44428;-66
2024/04/16 02:36:02;;;;;;;;;2.25;1.00;;;;;11.26;62.44;100837.97;5406941;26;44812;-66
2024/04/16 02:38:28;;;;;;;;;0.25;0.25;;;;;11.35;62.75;100843.03;5416621;26;45148;-66
2024/04/16 02:40:53;;;;;;;;;3.50;1.00;;;;;11.38;62.44;100856.28;5415142;26;44198;-66
2024/04/16 02:43:18;;;;;;;;;0.50;0.25;;;;;11.23;62.90;100814.06;5399414;26;43998;-66
2024/04/16 02:45:44;;;;;;;;;0.75;0.75;;;;;11.21;62.40;100802.53;5401742;26;43889;-66
2024/04/16 02:48:09;;;;;;;;;0.50;0.50;;;;;11.26;62.08;100819.28;5402415;26;43938;-66
2024/04/16 02:50:35;;;;;;;;;1.75;0.75;;;;;11.29;62.46;100825.41;5406798;26;43977;-66
2024/04/16 02:53:00;;;;;;;;;1.00;0.00;;;;;11.03;62.21;100780.00;5416695;26;44025;-66
2024/04/16 02:55:25;;;;;;;;;2.50;1.00;;;;;11.02;62.06;100771.09;5402984;26;48986;-66
2024/04/16 02:57:50;;;;;;;;;1.25;0.50;;;;;10.99;62.36;100779.22;5417106;26;50160;-66
2024/04/16 03:00:16;;;;;;;;;0.25;0.25;;;;;11.26;62.48;100811.25;5391619;26;43918;-66
2024/04/16 03:02:42;;;;;;;;;2.00;0.50;;;;;11.16;62.32;100797.38;5400232;26;43906;-66
2024/04/16 03:05:07;;;;;;;;;0.25;0.25;;;;;11.07;62.49;100781.63;5396746;26;44145;-66
2024/04/16 03:07:32;;;;;;;;;0.00;0.00;;;;;11.22;63.02;100814.97;5402350;26;44786;-66
2024/04/16 03:09:58;;;;;;;;;1.00;0.00;;;;;11.12;62.76;100793.91;5412649;26;43873;-66
2024/04/16 03:12:23;;;;;;;;;2.50;1.25;;;;;11.12;62.71;100793.03;5404592;26;44007;-66
2024/04/16 03:14:52;;;;;;;;;1.00;1.00;;;;;11.10;62.34;100797.56;5422569;26;44035;-66
2024/04/16 03:17:18;;;;;;;;;0.25;0.00;;;;;11.13;62.28;100784.97;5412173;26;45220;-66
2024/04/16 03:19:44;;;;;;;;;1.00;1.00;;;;;10.98;62.11;100769.47;5413306;26;43966;-66
2024/04/16 03:22:09;;;;;;;;;1.00;0.25;;;;;10.99;62.52;100765.00;5401976;26;48105;-66
2024/04/16 03:24:35;;;;;;;;;1.00;1.00;;;;;11.25;62.44;100823.75;5392130;26;43962;-66
2024/04/16 03:27:00;;;;;;;;;2.00;0.00;;;;;10.97;62.36;100777.53;5416414;26;44174;-66
2024/04/16 03:29:25;;;;;;;;;1.75;1.00;;;;;11.07;62.89;100795.00;5408525;26;43963;-66
2024/04/16 03:31:51;;;;;;;;;1.50;1.00;;;;;11.18;62.39;100808.88;5423633;26;43890;-66
2024/04/16 03:34:16;;;;;;;;;0.50;0.00;;;;;10.95;62.19;100774.91;5421835;26;43869;-66
2024/04/16 03:36:41;;;;;;;;;2.25;1.00;;;;;11.09;62.85;100787.78;5402913;26;45163;-66
2024/04/16 03:39:06;;;;;;;;;2.00;0.00;;;;;11.17;62.60;100796.44;5450070;26;43849;-66
2024/04/16 03:41:32;;;;;;;;;0.50;0.00;;;;;11.12;62.14;100801.06;5421544;25;43831;-66
2024/04/16 03:43:57;;;;;;;;;0.75;0.00;;;;;11.11;63.32;100818.88;5404062;26;44171;-66
2024/04/16 03:46:23;;;;;;;;;0.25;0.25;;;;;11.00;63.12;100794.31;5426124;26;46825;-66
2024/04/16 03:48:48;;;;;;;;;2.75;0.50;;;;;11.01;62.49;100797.84;5426315;26;43829;-66
2024/04/16 03:51:13;;;;;;;;;1.50;0.00;;;;;11.08;63.36;100813.66;5418301;26;44173;-66
2024/04/16 03:53:38;;;;;;;;;1.00;1.00;;;;;11.01;63.40;100801.44;5422801;26;43883;-66
2024/04/16 03:56:04;;;;;;;;;0.75;0.00;;;;;11.03;62.46;100815.59;5420655;26;44029;-66
2024/04/16 03:58:30;;;;;;;;;1.00;0.75;;;;;10.82;62.74;100773.56;5408557;26;43926;-66
2024/04/16 04:01:05;;;;;;;;;1.25;0.75;;;;;11.06;63.29;100812.84;5421982;26;43903;-66
2024/04/16 04:03:31;;;;;;;;;1.50;0.75;;;;;10.94;63.57;100792.75;5409765;26;43792;-66
2024/04/16 04:05:56;;;;;;;;;1.00;1.00;;;;;10.91;63.70;100790.16;5403284;26;43959;-66
2024/04/16 04:08:22;;;;;;;;;1.50;0.00;;;;;10.90;63.75;100784.88;5409742;26;43963;-66
2024/04/16 04:10:47;;;;;;;;;0.25;0.00;;;;;10.98;63.94;100800.66;5399263;26;43850;-66
2024/04/16 04:13:13;;;;;;;;;3.25;1.25;;;;;10.90;63.43;100782.22;5408553;26;44865;-66
2024/04/16 04:15:39;;;;;;;;;0.50;0.50;;;;;10.92;63.55;100796.38;5426394;26;44105;-66
2024/04/16 04:18:05;;;;;;;;;2.00;1.00;;;;;10.89;63.96;100786.69;5409398;26;44068;-66
2024/04/16 04:20:31;;;;;;;;;1.75;1.00;;;;;10.83;63.55;100762.84;5423125;26;43851;-66
2024/04/16 04:22:56;;;;;;;;;1.50;1.00;;;;;10.82;63.52;100784.25;5408535;26;43920;-66
2024/04/16 04:25:22;;;;;;;;;1.25;0.25;;;;;10.91;64.00;100808.00;5416862;26;43890;-66
2024/04/16 04:27:47;;;;;;;;;3.50;2.50;;;;;11.04;63.80;100824.47;5413207;26;44154;-66
2024/04/16 04:30:15;;;;;;;;;1.00;1.00;;;;;11.04;63.98;100833.38;5406735;26;43906;-66
2024/04/16 04:32:41;;;;;;;;;4.25;2.25;;;;;10.78;63.80;100787.97;5427653;26;44667;-66
2024/04/16 04:35:09;;;;;;;;;2.00;2.00;;;;;10.92;63.77;100796.38;5426685;26;47041;-66
2024/04/16 04:37:34;;;;;;;;;1.00;1.00;;;;;11.08;64.64;100828.81;5409181;26;43952;-66
2024/04/16 04:40:00;;;;;;;;;2.50;0.00;;;;;10.88;64.41;100795.59;5418437;26;44033;-66
2024/04/16 04:42:28;;;;;;;;;1.50;0.50;;;;;11.08;64.16;100827.00;5413595;26;44189;-66
2024/04/16 04:44:53;;;;;;;;;0.75;0.50;;;;;10.98;63.90;100798.00;5394450;26;44915;-66
2024/04/16 04:47:21;;;;;;;;;1.00;0.00;;;;;11.15;64.15;100829.47;5413959;26;44792;-66
2024/04/16 04:49:47;;;;;;;;;1.75;0.00;;;;;11.05;64.13;100810.22;5403604;26;43990;-66
2024/04/16 04:52:12;;;;;;;;;1.00;1.00;;;;;11.10;63.96;100819.81;5452418;26;43974;-66
2024/04/16 04:54:38;;;;;;;;;2.50;1.00;;;;;11.15;64.22;100816.13;5419077;26;45801;-66
2024/04/16 04:57:03;;;;;;;;;2.00;0.00;;;;;11.17;64.92;100814.25;5416120;26;44053;-66
2024/04/16 04:59:29;;;;;;;;;2.00;1.00;;;;;11.07;65.53;100817.22;5413253;26;43917;-66
2024/04/16 05:01:54;;;;;;;;;3.00;1.00;;;;;11.20;65.09;100832.88;5410085;26;43901;-66
2024/04/16 05:04:20;;;;;;;;;4.00;1.00;;;;;11.23;64.61;100838.13;5419200;26;44800;-66
2024/04/16 05:06:46;;;;;;;;;3.00;1.00;;;;;10.93;65.93;100795.47;5410023;26;43910;-66
2024/04/16 05:09:11;;;;;;;;;2.25;0.00;;;;;11.05;65.92;100812.88;5424778;26;44486;-66
2024/04/16 05:11:36;;;;;;;;;2.00;0.00;;;;;11.15;65.90;100827.66;5422313;26;43913;-66
2024/04/16 05:14:02;;;;;;;;;2.50;1.00;;;;;10.90;65.55;100785.75;5410583;26;45616;-66
2024/04/16 05:16:27;;;;;;;;;3.25;1.75;;;;;11.22;65.90;100829.19;5394268;26;44132;-66
2024/04/16 05:18:52;;;;;;;;;4.00;1.50;;;;;11.15;65.96;100826.81;5417700;26;43790;-66
2024/04/16 05:21:18;;;;;;;;;4.00;1.00;;;;;11.10;66.89;100825.16;5413013;26;44849;-66
2024/04/16 05:23:44;;;;;;;;;5.00;1.25;;;;;11.06;66.81;100823.50;5418869;26;43935;-66
2024/04/16 05:26:10;;;;;;;;;2.25;0.75;;;;;11.02;67.09;100818.31;5415045;26;43797;-66
2024/04/16 05:28:35;;;;;;;;;2.75;0.75;;;;;11.17;67.69;100843.66;5396376;26;43875;-66
2024/04/16 05:31:01;;;;;;;;;4.75;1.25;;;;;11.08;67.20;100823.47;5415456;26;43838;-66
2024/04/16 05:33:26;;;;;;;;;2.25;1.00;;;;;11.03;67.10;100815.59;5405183;26;44061;-66
2024/04/16 05:35:52;;;;;;;;;1.00;1.00;;;;;11.03;67.46;100804.06;5426322;26;43999;-66
2024/04/16 05:38:19;;;;;;;;;2.00;1.00;;;;;11.16;67.38;100820.53;5405707;26;43925;-66
2024/04/16 05:40:44;;;;;;;;;2.00;2.00;;;;;11.13;67.50;100822.38;5407757;26;44213;-66
2024/04/16 05:43:09;;;;;;;;;1.00;1.00;;;;;11.25;67.68;100847.81;5424923;26;43936;-67
2024/04/16 05:45:35;;;;;;;;;2.00;1.00;;;;;11.08;67.39;100818.13;5406435;26;49333;-66
2024/04/16 05:48:00;;;;;;;;;4.50;2.00;;;;;11.12;67.31;100823.28;5446296;26;43851;-66
2024/04/16 05:50:26;;;;;;;;;1.50;1.50;;;;;11.27;67.45;100834.41;5413386;26;44059;-66
2024/04/16 05:52:51;;;;;;;;;2.25;1.00;;;;;11.17;67.13;100817.78;5419245;26;44705;-66
2024/04/16 05:55:16;;;;;;;;;3.00;1.50;;;;;11.26;67.18;100843.31;5418830;26;44072;-70
2024/04/16 05:57:42;;;;;;;;;1.50;1.00;;;;;11.21;67.75;100840.84;5416524;26;43884;-70
2024/04/16 06:00:07;;;;;;;;;2.00;0.00;;;;;11.24;67.35;100854.09;5410419;26;44089;-69
2024/04/16 06:02:33;;;;;;;;;1.50;1.00;;;;;11.29;67.41;100848.56;5421472;26;45860;-70
2024/04/16 06:04:58;;;;;;;;;3.00;1.00;;;;;11.32;67.18;100848.47;5405988;26;43901;-69
2024/04/16 06:07:23;;;;;;;;;3.00;1.00;;;;;11.22;68.04;100820.31;5424402;26;43746;-70
2024/04/16 06:09:49;;;;;;;;;2.75;0.00;;;;;11.35;68.70;100851.06;5422493;26;45898;-70
2024/04/16 06:12:15;;;;;;;;;2.00;2.00;;;;;11.06;68.89;100799.47;5422354;26;55507;-70
2024/04/16 06:14:40;;;;;;;;;2.25;2.00;;;;;11.23;68.25;100817.59;5409365;26;43883;-70
2024/04/16 06:17:06;;;;;;;;;3.50;1.75;;;;;11.29;68.21;100837.88;5406463;26;44089;-70
2024/04/16 06:19:31;;;;;;;;;3.25;1.75;;;;;11.08;68.13;100802.09;5400202;26;45856;-70
2024/04/16 06:21:56;;;;;;;;;2.75;1.00;;;;;11.12;68.09;100817.94;5408533;26;44138;-69
2024/04/16 06:24:21;;;;;;;;;1.25;1.25;;;;;11.16;68.22;100825.88;5410208;26;55131;-70
2024/04/16 06:26:47;;;;;;;;;3.00;1.50;;;;;11.38;68.02;100853.63;5407192;26;43871;-72
2024/04/16 06:29:12;;;;;;;;;4.25;1.00;;;;;11.22;68.69;100828.34;5392610;26;43958;-70
2024/04/16 06:31:37;;;;;;;;;2.00;1.00;;;;;11.33;67.91;100842.22;5399960;26;46629;-74
2024/04/16 06:34:03;;;;;;;;;2.50;2.00;;;;;11.37;67.98;100840.31;5402546;26;43947;-75
2024/04/16 06:36:29;;;;;;;;;3.00;2.25;;;;;11.44;68.00;100852.53;5411885;26;43963;-73
2024/04/16 06:38:54;;;;;;;;;1.50;1.50;;;;;11.38;68.33;100845.59;5406446;26;44231;-74
2024/04/16 06:41:19;;;;;;;;;3.00;2.00;;;;;11.36;67.48;100844.78;5422144;26;46445;-74
2024/04/16 06:43:44;;;;;;;;;6.50;1.00;;;;;11.28;67.99;100829.00;5414359;26;44000;-76
2024/04/16 06:46:10;;;;;;;;;1.00;1.00;;;;;11.22;67.44;100825.66;5401156;26;44022;-74
2024/04/16 06:48:35;;;;;;;;;2.00;2.00;;;;;11.47;67.40;100855.09;5423713;26;44054;-75
2024/04/16 06:51:01;;;;;;;;;4.00;1.00;;;;;11.34;67.43;100829.72;5404221;26;45122;-74
2024/04/16 06:53:26;;;;;;;;;2.75;1.00;;;;;11.28;67.59;100818.31;5412413;26;43980;-74
2024/04/16 06:56:02;;;;;;;;;2.00;1.00;;;;;11.55;68.04;100855.72;5401345;26;44017;-74
2024/04/16 06:58:27;;;;;;;;;4.00;1.00;;;;;11.50;67.36;100850.50;5410834;26;43867;-75
2024/04/16 07:00:54;;;;;;;;;4.75;1.25;;;;;11.47;67.03;100837.25;5424398;26;46961;-76
2024/04/16 07:03:20;;;;;;;;;2.75;1.00;;;;;11.50;67.19;100830.94;5419251;26;44115;-75
2024/04/16 07:05:45;;;;;;;;;1.75;1.00;;;;;11.73;67.70;100875.59;5407901;26;43924;-66
2024/04/16 07:08:11;;;;;;;;;2.50;1.00;;;;;11.46;67.73;100832.84;5413595;26;45046;-66
2024/04/16 07:10:36;;;;;;;;;2.75;2.00;;;;;11.73;66.73;100869.34;5412553;26;45574;-66
2024/04/16 07:13:01;;;;;;;;;3.00;1.00;;;;;11.66;66.59;100863.34;5422907;26;44040;-66
2024/04/16 07:15:27;;;;;;;;;2.00;2.00;;;;;11.47;66.71;100821.22;5423948;26;43931;-66
2024/04/16 07:17:52;;;;;;;;;4.25;2.00;;;;;11.45;67.17;100817.72;5415952;26;44034;-66
2024/04/16 07:20:17;;;;;;;;;4.00;1.75;;;;;11.67;67.22;100857.94;5400716;26;44149;-66
2024/04/16 07:22:43;;;;;;;;;4.00;3.00;;;;;11.77;67.00;100866.53;5413073;26;46063;-66
2024/04/16 07:25:08;;;;;;;;;1.50;1.00;;;;;11.55;66.84;100825.44;5422208;26;44245;-69
2024/04/16 07:27:33;;;;;;;;;2.25;1.75;;;;;11.76;66.92;100864.78;5425614;26;44031;-69
2024/04/16 07:29:59;;;;;;;;;3.75;3.00;;;;;11.72;67.18;100856.94;5415011;26;45163;-69
2024/04/16 07:32:24;;;;;;;;;2.00;2.00;;;;;11.67;66.52;100827.66;5410311;26;48183;-69
2024/04/16 07:34:50;;;;;;;;;2.50;1.00;;;;;11.91;66.40;100868.75;5423030;26;43935;-69
2024/04/16 07:37:15;;;;;;;;;2.50;2.50;;;;;11.86;67.54;100860.88;5420963;26;44784;-69
2024/04/16 07:39:40;;;;;;;;;2.75;2.00;;;;;11.86;67.46;100855.50;5409380;26;44057;-69
2024/04/16 07:42:06;;;;;;;;;3.25;1.00;;;;;11.76;66.71;100834.47;5417800;26;44068;-69
2024/04/16 07:44:31;;;;;;;;;4.25;1.75;;;;;11.74;67.04;100826.50;5410985;26;44027;-69
2024/04/16 07:46:59;;;;;;;;;3.50;2.25;;;;;12.00;66.55;100854.19;5421150;26;43820;-69
2024/04/16 07:49:24;;;;;;;;;2.00;2.00;;;;;11.91;67.44;100839.34;5410316;26;45557;-69
2024/04/16 07:51:50;;;;;;;;;3.75;3.00;;;;;11.79;67.08;100819.19;5421535;26;44008;-69
2024/04/16 07:54:15;;;;;;;;;3.50;1.25;;;;;11.89;66.98;100826.91;5402097;26;44134;-69
2024/04/16 07:56:41;;;;;;;;;2.75;1.00;;;;;11.84;67.02;100819.03;5402799;26;44296;-69
2024/04/16 07:59:06;;;;;;;;;4.50;2.25;;;;;12.09;67.26;100859.16;5408637;26;46033;-69
2024/04/16 08:01:31;;;;;;;;;4.00;1.50;;;;;12.12;66.72;100864.41;5422430;26;43826;-69
2024/04/16 08:03:57;;;;;;;;;4.25;3.00;;;;;11.95;67.24;100832.06;5395584;26;44033;-69
2024/04/16 08:06:22;;;;;;;;;1.50;1.00;;;;;12.08;67.67;100856.53;5403119;26;43973;-69
2024/04/16 08:08:49;;;;;;;;;3.50;2.75;;;;;12.06;67.55;100867.31;5401702;26;43761;-69
2024/04/16 08:11:15;;;;;;;;;3.50;2.00;;;;;12.06;68.91;100867.31;5407432;26;43947;-69
2024/04/16 08:13:40;;;;;;;;;2.00;2.00;;;;;11.94;69.56;100847.22;5399294;26;44044;-69
2024/04/16 08:16:06;;;;;;;;;2.50;2.25;;;;;12.13;69.36;100868.84;5408660;26;44063;-69
2024/04/16 08:18:32;;;;;;;;;4.75;2.75;;;;;12.14;70.05;100875.94;5412752;26;44906;-68
2024/04/16 08:20:58;;;;;;;;;5.00;3.25;;;;;12.14;70.71;100865.22;5402119;26;44271;-69
2024/04/16 08:23:23;;;;;;;;;3.00;3.00;;;;;12.13;70.44;100871.53;5409043;26;43744;-69
2024/04/16 08:25:58;;;;;;;;;4.75;3.00;;;;;11.95;71.47;100848.13;5406748;26;43987;-69
2024/04/16 08:28:24;;;;;;;;;5.00;2.50;;;;;12.08;71.54;100870.81;5421222;26;44897;-69
2024/04/16 08:30:52;;;;;;;;;1.50;1.00;;;;;12.16;71.21;100889.25;5411326;26;43897;-69
2024/04/16 08:33:20;;;;;;;;;4.50;3.00;;;;;12.03;72.43;100875.47;5422338;26;44204;-69
2024/04/16 08:35:45;;;;;;;;;2.00;2.00;;;;;12.03;72.59;100881.69;5420585;26;43902;-69
2024/04/16 08:38:11;;;;;;;;;2.25;1.00;;;;;11.82;73.12;100839.63;5401704;26;44836;-69
2024/04/16 08:40:37;;;;;;;;;3.75;1.00;;;;;11.90;72.94;100858.09;5418365;26;44423;-69
2024/04/16 08:43:02;;;;;;;;;3.50;3.00;;;;;12.08;74.27;100875.28;5403834;26;44060;-69
2024/04/16 08:45:29;;;;;;;;;2.50;2.50;;;;;12.08;74.44;100884.19;5409038;26;43984;-69
2024/04/16 08:47:57;;;;;;;;;2.00;2.00;;;;;12.07;73.52;100877.09;5417385;26;45516;-67
2024/04/16 08:50:23;;;;;;;;;2.00;2.00;;;;;12.09;73.76;100880.56;5420646;26;44565;-67
2024/04/16 08:52:50;;;;;;;;;4.50;2.75;;;;;12.00;73.64;100857.72;5412857;26;43929;-67
2024/04/16 08:55:18;;;;;;;;;6.00;1.00;;;;;12.11;73.70;100891.22;5400216;26;44387;-66
2024/04/16 08:57:45;;;;;;;;;3.75;2.50;;;;;11.91;73.64;100855.38;5405050;26;44085;-66
2024/04/16 09:00:11;;;;;;;;;2.75;2.75;;;;;12.09;74.29;100883.25;5412729;26;43834;-66
2024/04/16 09:02:37;;;;;;;;;3.50;2.75;;;;;12.05;74.63;100887.84;5419362;26;44150;-65
2024/04/16 09:05:05;;;;;;;;;3.25;2.00;;;;;12.11;75.65;100902.81;5412525;26;43963;-67
2024/04/16 09:07:33;;;;;;;;;4.00;2.00;;;;;11.99;76.31;100884.53;5422091;26;45327;-68
2024/04/16 09:09:59;;;;;;;;;4.25;3.25;;;;;11.77;75.88;100850.47;5429258;26;44188;-67
2024/04/16 09:12:25;;;;;;;;;3.00;2.00;;;;;12.07;76.53;100894.97;5424797;26;44005;-67
2024/04/16 09:14:51;;;;;;;;;4.75;2.25;;;;;11.84;75.93;100851.13;5410946;26;44108;-67
2024/04/16 09:17:17;;;;;;;;;2.75;1.50;;;;;11.80;76.44;100860.22;5422417;26;44883;-68
2024/04/16 09:19:43;;;;;;;;;5.00;2.00;;;;;11.78;76.01;100862.06;5428721;26;44053;-67
2024/04/16 09:22:12;;;;;;;;;3.00;1.50;;;;;11.75;75.54;100860.38;5417226;26;44083;-67
2024/04/16 09:24:37;;;;;;;;;2.00;1.75;;;;;12.03;76.76;100904.91;5428751;26;44112;-67
2024/04/16 09:27:14;;;;;;;;;3.50;2.50;;;;;11.78;76.45;100870.97;5421572;26;44788;-68
2024/04/16 09:29:51;;;;;;;;;1.00;1.00;;;;;11.86;76.73;100879.59;5440628;26;43861;-68
2024/04/16 09:32:26;;;;;;;;;2.50;2.00;;;;;11.91;76.06;100882.13;5434612;26;43763;-68
2024/04/16 09:34:56;;;;;;;;;1.50;1.25;;;;;11.87;76.09;100873.28;5396509;26;44027;-67
2024/04/16 09:37:39;;;;;;;;;2.00;2.00;;;;;11.89;77.04;100862.53;5407818;26;43951;-67
2024/04/16 09:40:07;;;;;;;;;3.00;2.00;;;;;12.10;76.65;100895.72;5450717;26;44205;-68
2024/04/16 09:42:36;;;;;;;;;2.00;2.00;;;;;11.96;75.75;100873.94;5426878;26;44509;-68
2024/04/16 09:45:06;;;;;;;;;4.50;2.00;;;;;11.92;77.30;100870.50;5411280;26;44251;-68
2024/04/16 09:47:35;;;;;;;;;4.75;2.75;;;;;12.27;76.98;100911.16;5422110;26;44241;-68
2024/04/16 09:50:01;;;;;;;;;3.00;3.00;;;;;12.11;77.29;100889.44;5411051;26;44411;-68
2024/04/16 09:52:28;;;;;;;;;5.25;4.00;;;;;12.16;78.31;100876.78;5425068;26;43872;-69
2024/04/16 09:54:58;;;;;;;;;4.00;4.00;;;;;12.34;77.62;100903.75;5408628;26;43942;-69
2024/04/16 09:57:28;;;;;;;;;5.00;3.00;;;;;12.39;76.75;100907.16;5442563;26;44058;-69
2024/04/16 09:59:58;;;;;;;;;4.00;2.75;;;;;12.36;77.11;100893.88;5416375;26;43942;-69
2024/04/16 10:02:26;;;;;;;;;4.50;2.75;;;;;12.26;77.78;100871.06;5415503;26;44056;-69
2024/04/16 10:04:53;;;;;;;;;2.00;2.00;;;;;12.21;76.97;100857.84;5401900;26;44151;-69
2024/04/16 10:07:21;;;;;;;;;1.50;1.00;;;;;12.30;76.13;100867.34;5415629;26;44116;-69
2024/04/16 10:09:49;;;;;;;;;1.75;1.75;;;;;12.20;74.34;100854.31;5400114;26;43977;-69
2024/04/16 10:12:16;;;;;;;;;2.75;1.75;;;;;12.37;73.91;100866.19;5419375;26;43874;-69
2024/04/16 10:14:43;;;;;;;;;0.75;0.75;;;;;12.34;73.69;100851.09;5418988;26;43790;-68
2024/04/16 10:17:12;;;;;;;;;0.75;0.75;;;;;12.48;74.24;100884.50;5399105;26;44303;-69
2024/04/16 10:19:37;;;;;;;;;0.50;0.50;;;;;12.50;73.78;100864.78;5403456;26;44047;-68
2024/04/16 10:22:03;;;;;;;;;2.00;0.00;;;;;12.59;73.66;100895.69;5408817;26;44354;-68
2024/04/16 10:24:31;;;;;;;;;4.75;0.00;;;;;12.61;75.10;100896.50;5409890;26;44057;-68
2024/04/16 10:27:01;;;;;;;;;1.00;1.00;;;;;12.56;74.76;100894.00;5421922;26;44333;-68
2024/04/16 10:29:27;;;;;;;;;2.50;1.50;;;;;12.41;74.27;100873.16;5415348;26;44812;-69
2024/04/16 10:31:57;;;;;;;;;1.00;0.00;;;;;12.67;73.01;100904.28;5427990;26;44170;-68
2024/04/16 10:34:26;;;;;;;;;0.75;0.75;;;;;12.51;73.25;100879.94;5423168;26;43946;-68
2024/04/16 10:36:55;;;;;;;;;0.00;0.00;;;;;12.46;74.50;100870.31;5410060;26;44115;-68
2024/04/16 10:39:33;;;;;;;;;0.25;0.00;;;;;12.68;74.35;100902.47;5415418;26;43997;-68
2024/04/16 10:42:01;;;;;;;;;0.00;0.00;;;;;12.56;73.58;100882.41;5400485;26;44080;-69
2024/04/16 10:44:30;;;;;;;;;1.00;0.50;;;;;12.39;73.37;100849.13;5420241;26;43947;-69
2024/04/16 10:46:57;;;;;;;;;1.00;1.00;;;;;12.52;74.72;100881.66;5421193;26;46152;-68
2024/04/16 10:49:25;;;;;;;;;2.00;2.00;;;;;12.45;74.93;100873.94;5404538;26;44275;-68
2024/04/16 10:51:53;;;;;;;;;3.00;1.25;;;;;12.61;73.92;100888.44;5394021;26;43929;-68
2024/04/16 10:54:20;;;;;;;;;2.75;2.00;;;;;12.60;74.64;100884.91;5413494;26;43920;-68
2024/04/16 10:56:47;;;;;;;;;1.50;1.00;;;;;12.51;73.61;100854.94;5417979;26;46093;-69
2024/04/16 10:59:16;;;;;;;;;2.00;1.00;;;;;12.62;73.67;100865.25;5415790;26;44066;-66
2024/04/16 11:01:43;;;;;;;;;2.50;1.50;;;;;12.58;74.90;100851.97;5417960;26;44157;-68
2024/04/16 11:04:13;;;;;;;;;2.25;1.00;;;;;12.54;74.18;100844.09;5415613;26;43781;-69
2024/04/16 11:06:47;;;;;;;;;1.50;0.25;;;;;12.64;73.52;100844.63;5427009;26;45348;-69
2024/04/16 11:09:14;;;;;;;;;1.00;1.00;;;;;12.71;73.39;100843.44;5411142;26;44157;-69
2024/04/16 11:11:40;;;;;;;;;0.75;0.00;;;;;12.72;75.89;100821.97;5402755;26;43984;-69
2024/04/16 11:14:11;;;;;;;;;3.50;2.00;;;;;12.94;75.39;100846.06;5416302;26;44344;-69
2024/04/16 11:16:43;;;;;;;;;5.25;1.50;;;;;13.04;74.13;100846.56;5420918;26;45290;-69
2024/04/16 11:19:09;;;;;;;;;1.00;1.00;;;;;12.86;73.28;100817.84;5425987;26;44165;-69